Time;durP1;ratioP1;P1;durP2;ratioP2;P2;SDS_P1;SDS_P2;PMS_P1;PMS_P2;Temp;Humidity;BMP_temperature;BMP_pressure;BME280_temperature;BME280_humidity;BME280_pressure;Samples;Min_cycle;Max_cycle;Signal;HPM_P1;HPM_P2
2022/05/07 00:02:09;;;;;;;;;;;12.10;99.90;;;;;;5071397;28;20015;-72
2022/05/07 00:04:36;;;;;;;;;;;12.10;99.90;;;;;;5071359;28;19924;-72
2022/05/07 00:07:03;;;;;;;;;;;12.00;99.90;;;;;;5071698;28;19924;-71
2022/05/07 00:09:30;;;;;;;;;;;11.90;99.90;;;;;;5071079;28;19928;-72
2022/05/07 00:11:58;;;;;;;;;;;11.90;99.90;;;;;;5071447;28;20329;-72
2022/05/07 00:14:26;;;;;;;;;;;11.80;99.90;;;;;;5071160;28;20027;-72
2022/05/07 00:19:37;;;;;;;;;;;11.80;99.90;;;;;;5071150;28;20417;-72
2022/05/07 00:22:04;;;;;;;;;;;11.80;99.90;;;;;;5071285;28;19924;-72
2022/05/07 00:24:31;;;;;;;;;;;11.80;99.90;;;;;;5071258;28;19924;-71
2022/05/07 00:26:58;;;;;;;;;;;11.70;99.90;;;;;;5071004;28;19967;-72
2022/05/07 00:29:26;;;;;;;;;;;11.70;99.90;;;;;;5070948;28;19930;-72
2022/05/07 00:31:53;;;;;;;;;;;11.60;99.90;;;;;;5071050;28;19928;-72
2022/05/07 00:34:21;;;;;;;;;;;11.60;99.90;;;;;;5071020;28;19978;-72
2022/05/07 00:36:50;;;;;;;;;;;11.50;99.90;;;;;;5070994;28;20399;-72
2022/05/07 00:39:16;;;;;;;;;;;11.50;99.90;;;;;;5069782;28;19928;-71
2022/05/07 00:41:43;;;;;;;;;;;11.50;99.90;;;;;;5061492;28;19931;-72
2022/05/07 00:44:10;;;;;;;;;;;11.50;99.90;;;;;;5070140;28;19924;-73
2022/05/07 00:46:38;;;;;;;;;;;11.40;99.90;;;;;;5070302;28;20023;-72
2022/05/07 00:49:05;;;;;;;;;;;11.40;99.90;;;;;;5069997;28;19935;-72
2022/05/07 00:51:34;;;;;;;;;;;11.40;99.90;;;;;;5069703;28;19931;-72
2022/05/07 00:54:01;;;;;;;;;;;11.40;99.90;;;;;;5052611;28;19951;-72
2022/05/07 00:56:28;;;;;;;;;;;11.40;99.90;;;;;;5032921;28;20281;-72
2022/05/07 00:58:56;;;;;;;;;;;11.40;99.90;;;;;;5033190;28;19955;-72
2022/05/07 01:01:24;;;;;;;;;;;11.40;99.90;;;;;;5033232;28;20389;-72
2022/05/07 01:03:52;;;;;;;;;;;11.40;99.90;;;;;;5033057;28;19925;-72
2022/05/07 01:06:20;;;;;;;;;;;11.40;99.90;;;;;;5033053;28;19925;-72
2022/05/07 01:08:47;;;;;;;;;;;11.40;99.90;;;;;;5033070;28;19979;-70
2022/05/07 01:11:15;;;;;;;;;;;11.30;99.90;;;;;;5033387;28;19975;-72
2022/05/07 01:13:44;;;;;;;;;;;11.30;99.90;;;;;;5033068;28;19925;-72
2022/05/07 01:16:12;;;;;;;;;;;11.30;99.90;;;;;;5033053;28;19932;-72
2022/05/07 01:18:40;;;;;;;;;;;11.30;99.90;;;;;;5032434;28;19925;-72
2022/05/07 01:21:09;;;;;;;;;;;11.30;99.90;;;;;;5032925;28;19931;-72
2022/05/07 01:23:36;;;;;;;;;;;11.30;99.90;;;;;;5032895;28;20337;-71
2022/05/07 01:26:03;;;;;;;;;;;11.30;99.90;;;;;;5033156;28;20335;-72
2022/05/07 01:28:34;;;;;;;;;;;11.30;99.90;;;;;;5032636;28;19935;-71
2022/05/07 01:31:02;;;;;;;;;;;11.30;99.90;;;;;;5032824;28;19925;-72
2022/05/07 01:33:33;;;;;;;;;;;11.20;99.90;;;;;;5032942;28;19925;-72
2022/05/07 01:36:01;;;;;;;;;;;11.10;99.90;;;;;;5033256;28;20023;-72
2022/05/07 01:38:29;;;;;;;;;;;11.00;99.90;;;;;;5033027;28;19925;-71
2022/05/07 01:40:56;;;;;;;;;;;11.00;99.90;;;;;;5033010;28;19925;-72
2022/05/07 01:43:26;;;;;;;;;;;10.90;99.90;;;;;;5033116;28;19928;-70
2022/05/07 01:45:54;;;;;;;;;;;10.90;99.90;;;;;;5033051;28;20019;-72
2022/05/07 01:48:20;;;;;;;;;;;10.90;99.90;;;;;;5033172;28;19925;-72
2022/05/07 01:50:52;;;;;;;;;;;10.90;99.90;;;;;;5033037;28;19968;-72
2022/05/07 01:53:24;;;;;;;;;;;10.80;99.90;;;;;;5032897;28;19924;-71
2022/05/07 01:55:55;;;;;;;;;;;10.80;99.90;;;;;;5033048;28;19929;-72
2022/05/07 01:58:28;;;;;;;;;;;10.70;99.90;;;;;;5033061;28;19932;-71
2022/05/07 02:00:58;;;;;;;;;;;10.70;99.90;;;;;;5032979;28;19924;-72
2022/05/07 02:03:25;;;;;;;;;;;10.70;99.90;;;;;;5032861;28;19925;-71
2022/05/07 02:05:52;;;;;;;;;;;10.70;99.90;;;;;;5036743;28;19924;-72
2022/05/07 02:08:19;;;;;;;;;;;10.60;99.90;;;;;;5036762;28;19931;-72
2022/05/07 02:10:46;;;;;;;;;;;10.60;99.90;;;;;;5036418;28;19944;-72
2022/05/07 02:13:14;;;;;;;;;;;10.60;99.90;;;;;;5036698;28;20368;-72
2022/05/07 02:15:43;;;;;;;;;;;10.60;99.90;;;;;;5036328;28;19960;-72
2022/05/07 02:18:12;;;;;;;;;;;10.70;99.90;;;;;;5036249;28;19925;-72
2022/05/07 02:20:39;;;;;;;;;;;10.60;99.90;;;;;;5035821;28;19929;-72
2022/05/07 02:23:05;;;;;;;;;;;10.60;99.90;;;;;;5036469;28;19925;-72
2022/05/07 02:25:32;;;;;;;;;;;10.60;99.90;;;;;;5036059;28;19925;-72
2022/05/07 02:28:03;;;;;;;;;;;10.60;99.90;;;;;;5035949;28;19932;-72
2022/05/07 02:30:31;;;;;;;;;;;10.60;99.90;;;;;;5035758;28;19931;-72
2022/05/07 02:33:05;;;;;;;;;;;10.50;99.90;;;;;;5035908;28;20352;-72
2022/05/07 02:35:35;;;;;;;;;;;10.50;99.90;;;;;;5035646;28;19929;-72
2022/05/07 02:38:01;;;;;;;;;;;10.50;99.90;;;;;;5035855;28;19925;-71
2022/05/07 02:40:29;;;;;;;;;;;10.50;99.90;;;;;;5035843;28;19925;-73
2022/05/07 02:42:56;;;;;;;;;;;10.50;99.90;;;;;;5035971;28;19924;-71
2022/05/07 02:45:23;;;;;;;;;;;10.50;99.90;;;;;;5035122;28;19928;-72
2022/05/07 02:47:55;;;;;;;;;;;10.60;99.90;;;;;;5035764;28;19929;-72
2022/05/07 02:50:23;;;;;;;;;;;10.50;99.90;;;;;;5035360;28;19943;-72
2022/05/07 02:52:50;;;;;;;;;;;10.50;99.90;;;;;;5035598;28;19931;-71
2022/05/07 02:55:17;;;;;;;;;;;10.50;99.90;;;;;;5035354;28;19929;-72
2022/05/07 02:57:51;;;;;;;;;;;10.50;99.90;;;;;;5035601;28;20319;-71
2022/05/07 03:00:19;;;;;;;;;;;10.50;99.90;;;;;;5035268;28;19924;-71
2022/05/07 03:02:47;;;;;;;;;;;10.50;99.90;;;;;;5035473;28;19929;-72
2022/05/07 03:05:15;;;;;;;;;;;10.50;99.90;;;;;;5035295;28;19925;-74
2022/05/07 03:07:42;;;;;;;;;;;10.50;99.90;;;;;;5035358;28;20019;-72
2022/05/07 03:10:15;;;;;;;;;;;10.50;99.90;;;;;;5034918;28;19925;-73
2022/05/07 03:12:42;;;;;;;;;;;10.40;99.90;;;;;;5035234;28;19933;-74
2022/05/07 03:15:10;;;;;;;;;;;10.40;99.90;;;;;;5034227;28;19924;-72
2022/05/07 03:17:37;;;;;;;;;;;10.40;99.90;;;;;;5034990;28;20073;-72
2022/05/07 03:20:09;;;;;;;;;;;10.40;99.90;;;;;;5035017;28;19925;-74
2022/05/07 03:22:39;;;;;;;;;;;10.40;99.90;;;;;;5035205;28;19963;-73
2022/05/07 03:25:06;;;;;;;;;;;10.40;99.90;;;;;;5034449;28;19929;-72
2022/05/07 03:27:33;;;;;;;;;;;10.40;99.90;;;;;;5034745;28;19925;-72
2022/05/07 03:30:01;;;;;;;;;;;10.30;99.90;;;;;;5034594;28;19925;-73
2022/05/07 03:32:32;;;;;;;;;;;10.30;99.90;;;;;;5034723;28;19924;-72
2022/05/07 03:34:59;;;;;;;;;;;10.30;99.90;;;;;;5034857;28;19932;-73
2022/05/07 03:37:26;;;;;;;;;;;10.30;99.90;;;;;;5034395;28;19932;-72
2022/05/07 03:39:55;;;;;;;;;;;10.30;99.90;;;;;;5034310;28;19925;-72
2022/05/07 03:42:23;;;;;;;;;;;10.30;99.90;;;;;;5034654;28;20312;-72
2022/05/07 03:44:50;;;;;;;;;;;10.20;99.90;;;;;;5034049;28;19925;-72
2022/05/07 03:47:17;;;;;;;;;;;10.20;99.90;;;;;;5034527;28;19924;-72
2022/05/07 03:49:46;;;;;;;;;;;10.20;99.90;;;;;;5034228;28;19956;-74
2022/05/07 03:55:00;;;;;;;;;;;10.20;99.90;;;;;;5004809;28;19940;-73
2022/05/07 03:57:27;;;;;;;;;;;10.20;99.90;;;;;;5034601;28;19927;-72
2022/05/07 03:59:55;;;;;;;;;;;10.20;99.90;;;;;;5033986;28;20459;-73
2022/05/07 04:02:22;;;;;;;;;;;10.20;99.90;;;;;;5034348;28;20354;-72
2022/05/07 04:04:56;;;;;;;;;;;10.10;99.90;;;;;;5034296;28;19971;-72
2022/05/07 04:07:24;;;;;;;;;;;10.20;99.90;;;;;;5034353;28;19974;-72
2022/05/07 04:10:06;;;;;;;;;;;10.20;99.90;;;;;;5033886;28;20019;-73
2022/05/07 04:12:36;;;;;;;;;;;10.20;99.90;;;;;;5034080;28;19925;-72
2022/05/07 04:15:05;;;;;;;;;;;10.20;99.90;;;;;;5033727;28;19924;-72
2022/05/07 04:17:34;;;;;;;;;;;10.20;99.90;;;;;;5033919;28;19952;-72
2022/05/07 04:20:04;;;;;;;;;;;10.20;99.90;;;;;;5033507;28;19924;-72
2022/05/07 04:22:35;;;;;;;;;;;10.30;99.90;;;;;;5033922;28;20037;-72
2022/05/07 04:25:02;;;;;;;;;;;10.30;99.90;;;;;;5033945;28;20376;-74
2022/05/07 04:27:31;;;;;;;;;;;10.40;99.90;;;;;;5033610;28;20495;-72
2022/05/07 04:30:01;;;;;;;;;;;10.40;99.90;;;;;;5033543;28;19924;-73
2022/05/07 04:32:28;;;;;;;;;;;10.40;99.90;;;;;;5033501;28;19990;-72
2022/05/07 04:34:59;;;;;;;;;;;10.40;99.90;;;;;;5033370;28;20012;-73
2022/05/07 04:37:28;;;;;;;;;;;10.50;99.90;;;;;;5033752;28;19932;-72
2022/05/07 04:39:55;;;;;;;;;;;10.50;99.90;;;;;;5033231;28;20411;-72
2022/05/07 04:42:23;;;;;;;;;;;10.60;99.90;;;;;;5033650;28;19924;-73
2022/05/07 04:45:00;;;;;;;;;;;10.60;99.90;;;;;;5033333;28;20043;-73
2022/05/07 04:47:45;;;;;;;;;;;10.70;99.90;;;;;;5052070;28;19932;-72
2022/05/07 04:50:21;;;;;;;;;;;10.70;99.90;;;;;;5033271;28;19925;-72
2022/05/07 04:52:52;;;;;;;;;;;10.70;99.90;;;;;;5033579;28;19925;-72
2022/05/07 04:55:20;;;;;;;;;;;10.80;99.90;;;;;;5033259;28;19928;-72
2022/05/07 04:57:53;;;;;;;;;;;10.80;99.90;;;;;;5033380;28;19929;-72
2022/05/07 05:00:25;;;;;;;;;;;10.80;99.90;;;;;;5032857;28;20289;-72
2022/05/07 05:03:13;;;;;;;;;;;10.80;99.90;;;;;;5046516;28;20384;-72
2022/05/07 05:05:41;;;;;;;;;;;10.90;99.90;;;;;;5052703;28;19940;-72
2022/05/07 05:08:26;;;;;;;;;;;11.00;99.90;;;;;;5052914;28;19925;-72
2022/05/07 05:10:56;;;;;;;;;;;11.00;99.90;;;;;;5052921;28;19924;-73
2022/05/07 05:13:23;;;;;;;;;;;11.10;99.90;;;;;;5052799;28;19925;-73
2022/05/07 05:15:53;;;;;;;;;;;11.10;99.90;;;;;;5053452;28;19991;-72
2022/05/07 05:18:35;;;;;;;;;;;11.30;99.90;;;;;;5052816;28;20031;-74
2022/05/07 05:21:02;;;;;;;;;;;11.40;99.90;;;;;;5052756;28;19955;-74
2022/05/07 05:23:39;;;;;;;;;;;11.50;99.90;;;;;;5052698;28;19928;-72
2022/05/07 05:26:06;;;;;;;;;;;11.60;99.90;;;;;;5052895;28;19925;-71
2022/05/07 05:28:47;;;;;;;;;;;11.60;99.90;;;;;;5056464;28;20019;-73
2022/05/07 05:31:17;;;;;;;;;;;11.70;99.90;;;;;;5054848;28;20009;-70
2022/05/07 05:33:50;;;;;;;;;;;11.80;99.90;;;;;;5053721;28;19924;-73
2022/05/07 05:36:28;;;;;;;;;;;11.80;99.90;;;;;;5053184;28;20332;-73
2022/05/07 05:38:56;;;;;;;;;;;11.90;99.90;;;;;;5053308;28;19928;-72
2022/05/07 05:41:27;;;;;;;;;;;12.00;99.90;;;;;;5056843;28;20281;-73
2022/05/07 05:43:54;;;;;;;;;;;12.00;99.90;;;;;;5056591;28;19977;-72
2022/05/07 05:46:27;;;;;;;;;;;12.10;99.90;;;;;;5056675;28;19932;-73
2022/05/07 05:48:54;;;;;;;;;;;12.20;99.90;;;;;;5056230;28;20299;-74
2022/05/07 05:51:22;;;;;;;;;;;12.20;99.90;;;;;;5056534;28;19992;-71
2022/05/07 05:53:51;;;;;;;;;;;12.30;99.90;;;;;;5063195;28;20411;-73
2022/05/07 05:56:17;;;;;;;;;;;12.40;99.90;;;;;;5063134;28;19991;-73
2022/05/07 05:58:49;;;;;;;;;;;12.50;99.90;;;;;;5061658;28;19974;-73
2022/05/07 06:01:20;;;;;;;;;;;12.60;99.90;;;;;;5066673;28;19974;-73
2022/05/07 06:04:00;;;;;;;;;;;12.70;99.90;;;;;;5060890;28;20391;-73
2022/05/07 06:06:26;;;;;;;;;;;12.80;99.90;;;;;;5063266;28;20019;-72
2022/05/07 06:08:55;;;;;;;;;;;12.90;99.90;;;;;;5059785;28;20013;-72
2022/05/07 06:11:22;;;;;;;;;;;13.00;99.90;;;;;;5061893;28;19932;-75
2022/05/07 06:13:50;;;;;;;;;;;13.10;99.90;;;;;;5062829;28;19928;-72
2022/05/07 06:16:17;;;;;;;;;;;13.20;99.90;;;;;;5067817;28;19925;-73
2022/05/07 06:18:46;;;;;;;;;;;13.30;99.90;;;;;;5060937;28;19935;-73
2022/05/07 06:21:14;;;;;;;;;;;13.50;99.90;;;;;;5055408;28;19925;-73
2022/05/07 06:23:44;;;;;;;;;;;13.60;99.90;;;;;;5060437;28;19928;-73
2022/05/07 06:29:01;;;;;;;;;;;13.80;99.90;;;;;;5079391;28;20380;-73
2022/05/07 06:31:33;;;;;;;;;;;13.90;99.90;;;;;;5063432;28;19974;-74
2022/05/07 06:34:00;;;;;;;;;;;14.00;99.90;;;;;;5060126;28;19955;-74
2022/05/07 06:36:29;;;;;;;;;;;14.20;99.90;;;;;;5063652;28;19924;-73
2022/05/07 06:38:57;;;;;;;;;;;14.30;99.90;;;;;;5058851;28;19925;-74
2022/05/07 06:41:23;;;;;;;;;;;14.40;99.90;;;;;;5055683;28;19924;-73
2022/05/07 06:43:59;;;;;;;;;;;14.40;99.90;;;;;;5055523;28;19928;-73
2022/05/07 06:46:29;;;;;;;;;;;14.60;99.90;;;;;;5055725;28;19926;-70
2022/05/07 06:49:08;;;;;;;;;;;14.70;99.90;;;;;;5055004;28;20312;-72
2022/05/07 06:51:50;;;;;;;;;;;14.90;99.90;;;;;;5055795;28;19929;-74
2022/05/07 06:54:17;;;;;;;;;;;15.10;99.90;;;;;;5057291;28;19924;-73
2022/05/07 06:56:43;;;;;;;;;;;15.20;99.90;;;;;;5061535;28;19924;-73
2022/05/07 06:59:11;;;;;;;;;;;15.40;99.90;;;;;;5055178;28;19935;-74
2022/05/07 07:01:38;;;;;;;;;;;15.50;99.90;;;;;;5055463;28;20011;-74
2022/05/07 07:04:05;;;;;;;;;;;15.80;99.90;;;;;;5055074;28;19924;-76
2022/05/07 07:06:31;;;;;;;;;;;16.00;99.90;;;;;;5055800;28;19931;-72
2022/05/07 07:09:00;;;;;;;;;;;16.20;99.90;;;;;;5055010;28;19924;-72
2022/05/07 07:11:26;;;;;;;;;;;16.30;99.90;;;;;;5060109;28;19924;-74
2022/05/07 07:13:54;;;;;;;;;;;16.50;99.90;;;;;;5054886;28;19936;-72
2022/05/07 07:16:21;;;;;;;;;;;16.70;99.90;;;;;;5066800;28;19932;-73
2022/05/07 07:18:48;;;;;;;;;;;17.00;99.90;;;;;;5070123;28;20015;-72
2022/05/07 07:21:16;;;;;;;;;;;17.20;99.90;;;;;;5071618;28;19931;-72
2022/05/07 07:23:43;;;;;;;;;;;17.20;99.90;;;;;;5071140;28;20350;-72
2022/05/07 07:26:11;;;;;;;;;;;17.20;99.90;;;;;;5071408;28;19928;-73
2022/05/07 07:28:38;;;;;;;;;;;17.20;99.90;;;;;;5071860;28;19932;-73
2022/05/07 07:31:05;;;;;;;;;;;17.20;99.90;;;;;;5071253;28;19924;-72
2022/05/07 07:33:31;;;;;;;;;;;17.20;99.90;;;;;;5070979;28;19978;-71
2022/05/07 07:35:58;;;;;;;;;;;17.20;99.90;;;;;;5071474;28;19928;-72
2022/05/07 07:38:26;;;;;;;;;;;17.30;99.90;;;;;;5071156;28;20384;-72
2022/05/07 07:40:53;;;;;;;;;;;17.30;99.90;;;;;;5070789;28;19924;-72
2022/05/07 07:43:21;;;;;;;;;;;17.30;99.90;;;;;;5070899;28;19936;-72
2022/05/07 07:48:32;;;;;;;;;;;17.40;99.90;;;;;;5070821;28;20394;-72
2022/05/07 07:51:01;;;;;;;;;;;17.50;99.90;;;;;;5071041;28;19925;-71
2022/05/07 07:53:27;;;;;;;;;;;17.50;99.90;;;;;;5070771;28;19948;-71
2022/05/07 07:55:54;;;;;;;;;;;17.40;99.90;;;;;;5071043;28;19924;-72
2022/05/07 07:58:23;;;;;;;;;;;17.30;99.90;;;;;;5070190;28;20031;-72
2022/05/07 08:00:52;;;;;;;;;;;17.30;99.90;;;;;;5070307;28;19929;-72
2022/05/07 08:03:20;;;;;;;;;;;17.30;99.90;;;;;;5069845;28;19924;-72
2022/05/07 08:05:48;;;;;;;;;;;17.40;99.90;;;;;;5070177;28;20455;-71
2022/05/07 08:13:46;;;;;;;;;;;17.50;99.90;;;;;;5053839;28;19928;-71
2022/05/07 08:16:13;;;;;;;;;;;17.60;99.90;;;;;;5054167;28;19932;-72
2022/05/07 08:18:41;;;;;;;;;;;17.60;99.90;;;;;;5053967;28;19925;-72
2022/05/07 08:21:08;;;;;;;;;;;17.60;99.90;;;;;;5054072;28;19974;-72
2022/05/07 08:23:35;;;;;;;;;;;17.40;99.90;;;;;;5053689;28;19932;-72
2022/05/07 08:26:04;;;;;;;;;;;17.60;99.90;;;;;;5054639;28;19924;-73
2022/05/07 08:28:31;;;;;;;;;;;17.70;99.90;;;;;;5055294;28;20400;-72
2022/05/07 08:31:00;;;;;;;;;;;17.60;99.90;;;;;;5060688;28;20016;-72
2022/05/07 08:33:27;;;;;;;;;;;17.60;99.90;;;;;;5060115;28;19935;-72
2022/05/07 08:35:54;;;;;;;;;;;17.80;99.90;;;;;;5053942;28;19928;-73
2022/05/07 08:38:22;;;;;;;;;;;18.00;99.90;;;;;;5051699;28;19924;-73
2022/05/07 08:40:49;;;;;;;;;;;18.20;99.90;;;;;;5051609;28;19925;-73
2022/05/07 08:43:16;;;;;;;;;;;18.30;99.90;;;;;;5052352;28;19924;-73
2022/05/07 08:45:44;;;;;;;;;;;18.30;99.90;;;;;;5051935;28;19925;-73
2022/05/07 08:48:12;;;;;;;;;;;18.50;99.90;;;;;;5052008;28;19970;-72
2022/05/07 08:50:40;;;;;;;;;;;18.60;99.90;;;;;;5051758;28;19924;-73
2022/05/07 08:53:07;;;;;;;;;;;18.70;99.90;;;;;;5052930;28;20406;-72
2022/05/07 08:55:34;;;;;;;;;;;18.80;99.90;;;;;;5053380;28;19925;-73
2022/05/07 08:58:01;;;;;;;;;;;18.80;99.90;;;;;;5052964;28;20366;-72
2022/05/07 09:00:29;;;;;;;;;;;19.00;99.90;;;;;;5053000;28;20043;-73
2022/05/07 09:02:56;;;;;;;;;;;18.90;99.90;;;;;;5053244;28;19924;-73
2022/05/07 09:05:32;;;;;;;;;;;18.80;99.90;;;;;;5052939;28;20426;-74
2022/05/07 09:07:59;;;;;;;;;;;18.90;99.90;;;;;;5052913;28;19933;-74
2022/05/07 09:10:27;;;;;;;;;;;19.00;99.90;;;;;;5052437;28;19929;-74
2022/05/07 09:12:54;;;;;;;;;;;19.00;99.90;;;;;;5057918;28;20015;-74
2022/05/07 09:15:21;;;;;;;;;;;19.00;99.90;;;;;;5069214;28;19925;-70
2022/05/07 09:17:48;;;;;;;;;;;19.20;99.90;;;;;;5069824;28;19931;-73
2022/05/07 09:20:15;;;;;;;;;;;19.30;99.90;;;;;;5065347;28;19925;-73
2022/05/07 09:22:51;;;;;;;;;;;19.60;99.90;;;;;;5057064;28;19937;-72
2022/05/07 09:25:19;;;;;;;;;;;19.70;99.90;;;;;;5057048;28;19947;-72
2022/05/07 09:27:46;;;;;;;;;;;19.80;99.90;;;;;;5055334;28;19978;-73
2022/05/07 09:30:13;;;;;;;;;;;19.80;99.90;;;;;;5053733;28;19977;-73
2022/05/07 09:32:40;;;;;;;;;;;19.60;99.90;;;;;;5056616;28;20392;-73
2022/05/07 09:38:00;;;;;;;;;;;19.90;99.90;;;;;;5056915;28;19920;-72
2022/05/07 09:40:28;;;;;;;;;;;20.10;99.90;;;;;;5056248;28;19928;-72
2022/05/07 09:42:56;;;;;;;;;;;20.10;99.90;;;;;;5056660;28;19960;-71
2022/05/07 09:45:23;;;;;;;;;;;20.20;99.90;;;;;;5056847;28;20353;-72
2022/05/07 09:47:50;;;;;;;;;;;20.30;99.90;;;;;;5056467;28;19924;-73
2022/05/07 09:50:24;;;;;;;;;;;20.40;99.90;;;;;;5056443;28;19924;-72
2022/05/07 09:58:21;;;;;;;;;;;20.60;99.90;;;;;;5056172;28;19924;-73
2022/05/07 10:00:54;;;;;;;;;;;20.80;99.90;;;;;;5056207;28;20366;-72
2022/05/07 10:03:26;;;;;;;;;;;20.80;99.90;;;;;;5056339;28;19932;-72
2022/05/07 10:06:04;;;;;;;;;;;20.80;99.90;;;;;;5056134;28;19924;-72
2022/05/07 10:08:39;;;;;;;;;;;20.90;99.90;;;;;;5056080;28;19924;-72
2022/05/07 10:11:08;;;;;;;;;;;21.00;99.90;;;;;;5055890;28;19924;-72
2022/05/07 10:13:35;;;;;;;;;;;20.90;99.90;;;;;;5055658;28;19946;-72
2022/05/07 10:16:02;;;;;;;;;;;21.00;99.90;;;;;;5055937;28;19931;-72
2022/05/07 10:18:38;;;;;;;;;;;21.20;99.90;;;;;;5054920;28;19931;-72
2022/05/07 10:21:12;;;;;;;;;;;21.20;99.90;;;;;;5058996;28;19924;-72
2022/05/07 10:23:49;;;;;;;;;;;21.20;99.90;;;;;;5055761;28;19929;-71
2022/05/07 10:26:20;;;;;;;;;;;21.40;99.90;;;;;;5055978;28;20406;-71
2022/05/07 10:28:47;;;;;;;;;;;21.60;99.90;;;;;;5055941;28;19924;-70
2022/05/07 10:31:19;;;;;;;;;;;21.70;99.90;;;;;;5055690;28;19925;-71
2022/05/07 10:33:46;;;;;;;;;;;21.80;99.90;;;;;;5055659;28;20395;-72
2022/05/07 10:36:14;;;;;;;;;;;22.10;99.90;;;;;;5055835;28;19928;-72
2022/05/07 10:38:42;;;;;;;;;;;22.30;99.90;;;;;;5055475;28;19924;-72
2022/05/07 10:41:22;;;;;;;;;;;22.30;99.90;;;;;;5056100;28;19924;-72
2022/05/07 10:43:49;;;;;;;;;;;22.40;99.90;;;;;;5061086;28;20277;-71
2022/05/07 10:46:17;;;;;;;;;;;22.50;99.90;;;;;;5059330;28;19928;-69
2022/05/07 10:48:45;;;;;;;;;;;22.50;99.90;;;;;;5059402;28;19931;-72
2022/05/07 10:51:18;;;;;;;;;;;22.80;99.90;;;;;;5056669;28;20019;-70
2022/05/07 10:53:46;;;;;;;;;;;22.80;99.90;;;;;;5063339;28;19959;-72
2022/05/07 10:56:14;;;;;;;;;;;23.00;99.90;;;;;;5059964;28;19973;-72
2022/05/07 10:58:48;;;;;;;;;;;23.10;99.90;;;;;;5055962;28;20384;-71
2022/05/07 11:01:15;;;;;;;;;;;23.40;99.90;;;;;;5058573;28;19924;-72
2022/05/07 11:03:42;;;;;;;;;;;23.90;99.90;;;;;;5055655;28;20312;-71
2022/05/07 11:06:09;;;;;;;;;;;24.30;99.90;;;;;;5056371;28;19948;-75
2022/05/07 11:08:46;;;;;;;;;;;24.10;99.90;;;;;;5055757;28;19924;-75
2022/05/07 11:11:14;;;;;;;;;;;24.10;99.90;;;;;;5055820;28;19932;-74
2022/05/07 11:13:45;;;;;;;;;;;24.30;99.90;;;;;;5056028;28;19929;-76
2022/05/07 11:16:13;;;;;;;;;;;24.30;99.90;;;;;;5056110;28;19924;-75
2022/05/07 11:18:41;;;;;;;;;;;24.70;99.90;;;;;;5055723;28;19928;-73
2022/05/07 11:21:08;;;;;;;;;;;24.50;99.90;;;;;;5055908;28;20285;-72
2022/05/07 11:23:39;;;;;;;;;;;24.80;99.90;;;;;;5056458;28;19989;-71
2022/05/07 11:26:10;;;;;;;;;;;25.10;99.90;;;;;;5054946;28;19925;-73
2022/05/07 11:28:37;;;;;;;;;;;25.40;99.90;;;;;;5054496;28;19929;-75
2022/05/07 11:31:04;;;;;;;;;;;25.70;99.90;;;;;;5054322;28;20022;-75
2022/05/07 11:33:33;;;;;;;;;;;25.70;99.90;;;;;;5054329;28;19924;-72
2022/05/07 11:36:00;;;;;;;;;;;25.90;99.90;;;;;;5054276;28;20288;-71
2022/05/07 11:38:28;;;;;;;;;;;25.70;99.90;;;;;;5055487;28;19925;-68
2022/05/07 11:40:55;;;;;;;;;;;25.50;99.90;;;;;;5055666;28;19961;-70
2022/05/07 11:46:07;;;;;;;;;;;27.00;99.90;;;;;;5064783;28;19920;-75
2022/05/07 11:48:35;;;;;;;;;;;29.30;99.90;;;;;;5058143;28;19956;-72
2022/05/07 11:51:02;;;;;;;;;;;30.50;99.90;;;;;;5055086;28;20402;-74
2022/05/07 11:53:29;;;;;;;;;;;32.30;99.90;;;;;;5055074;28;19978;-74
2022/05/07 11:56:05;;;;;;;;;;;33.50;99.90;;;;;;5054899;28;20509;-73
2022/05/07 11:58:39;;;;;;;;;;;33.30;99.90;;;;;;5055390;28;19924;-75
2022/05/07 12:01:06;;;;;;;;;;;32.70;99.90;;;;;;5049330;28;19936;-75
2022/05/07 12:03:32;;;;;;;;;;;31.60;99.90;;;;;;5061064;28;19928;-74
2022/05/07 12:06:01;;;;;;;;;;;31.00;99.90;;;;;;5053960;28;19978;-73
2022/05/07 12:08:31;;;;;;;;;;;31.80;99.90;;;;;;5061871;28;19924;-74
2022/05/07 12:10:58;;;;;;;;;;;32.00;99.90;;;;;;5067929;28;19925;-75
2022/05/07 12:13:25;;;;;;;;;;;32.20;99.90;;;;;;5054202;28;19931;-73
2022/05/07 12:18:51;;;;;;;;;;;33.40;99.90;;;;;;5013426;28;20075;-76
2022/05/07 12:29:48;;;;;;;;;;;34.30;99.90;;;;;;5044883;28;19928;-74
2022/05/07 12:29:52;;;;;;;;;;;35.40;99.90;;;;;;5071594;28;19921;-72
2022/05/07 12:32:19;;;;;;;;;;;35.50;99.90;;;;;;5054744;28;19924;-72
2022/05/07 12:34:46;;;;;;;;;;;36.50;99.90;;;;;;5057758;28;19978;-71
2022/05/07 12:37:15;;;;;;;;;;;36.80;99.90;;;;;;5056708;28;19924;-74
2022/05/07 12:39:42;;;;;;;;;;;37.40;99.90;;;;;;5061397;28;19924;-72
2022/05/07 12:42:09;;;;;;;;;;;38.30;99.90;;;;;;5056352;28;19925;-78
2022/05/07 12:44:37;;;;;;;;;;;37.90;99.90;;;;;;5053408;28;19924;-73
2022/05/07 12:47:05;;;;;;;;;;;37.90;99.90;;;;;;5054251;28;19943;-72
2022/05/07 12:49:32;;;;;;;;;;;39.20;99.90;;;;;;5053018;28;19925;-73
2022/05/07 12:51:59;;;;;;;;;;;38.10;99.90;;;;;;5053815;28;19931;-73
2022/05/07 12:54:27;;;;;;;;;;;37.50;99.90;;;;;;5049788;28;19932;-72
2022/05/07 12:56:54;;;;;;;;;;;37.90;99.90;;;;;;5070434;28;20391;-72
2022/05/07 12:59:21;;;;;;;;;;;37.40;98.60;;;;;;5070979;28;19924;-72
2022/05/07 13:01:48;;;;;;;;;;;36.70;98.90;;;;;;5071002;28;19978;-71
2022/05/07 13:04:15;;;;;;;;;;;37.00;99.40;;;;;;5071129;28;19935;-72
2022/05/07 13:06:42;;;;;;;;;;;36.60;97.80;;;;;;5071049;28;20342;-73
2022/05/07 13:09:09;;;;;;;;;;;36.60;99.90;;;;;;5071123;28;20346;-73
2022/05/07 13:11:38;;;;;;;;;;;35.60;99.30;;;;;;5062768;28;20326;-70
2022/05/07 13:14:05;;;;;;;;;;;35.80;99.70;;;;;;5056547;28;19924;-71
2022/05/07 13:16:32;;;;;;;;;;;36.50;99.60;;;;;;5059275;28;19925;-73
2022/05/07 13:18:58;;;;;;;;;;;36.50;99.70;;;;;;5070501;28;19924;-72
2022/05/07 13:21:25;;;;;;;;;;;35.60;99.90;;;;;;5070773;28;19942;-71
2022/05/07 13:23:52;;;;;;;;;;;34.60;99.90;;;;;;5071149;28;19935;-71
2022/05/07 13:26:19;;;;;;;;;;;34.60;99.70;;;;;;5071491;28;19924;-69
2022/05/07 13:28:47;;;;;;;;;;;35.20;99.30;;;;;;5070805;28;19924;-71
2022/05/07 13:31:15;;;;;;;;;;;35.20;99.50;;;;;;5071094;28;19951;-73
2022/05/07 13:33:42;;;;;;;;;;;35.70;99.80;;;;;;5070376;28;19924;-73
2022/05/07 13:36:08;;;;;;;;;;;36.00;98.30;;;;;;5069163;28;20384;-74
2022/05/07 13:38:36;;;;;;;;;;;35.90;97.60;;;;;;5067744;28;19949;-73
2022/05/07 13:41:03;;;;;;;;;;;35.70;97.40;;;;;;5068273;28;19925;-74
2022/05/07 13:43:31;;;;;;;;;;;35.50;98.30;;;;;;5068337;28;19924;-73
2022/05/07 13:45:59;;;;;;;;;;;35.00;96.80;;;;;;5068194;28;20346;-73
2022/05/07 13:48:26;;;;;;;;;;;34.70;97.30;;;;;;5068154;28;19925;-73
2022/05/07 13:50:53;;;;;;;;;;;34.60;99.00;;;;;;5068756;28;19925;-74
2022/05/07 13:53:22;;;;;;;;;;;34.50;97.80;;;;;;5069401;28;19950;-73
2022/05/07 13:55:49;;;;;;;;;;;34.70;99.60;;;;;;5069128;28;19925;-73
2022/05/07 13:58:16;;;;;;;;;;;35.30;96.90;;;;;;5069476;28;19925;-74
2022/05/07 14:00:43;;;;;;;;;;;36.00;99.80;;;;;;5070586;28;19932;-74
2022/05/07 14:03:11;;;;;;;;;;;36.80;97.60;;;;;;5073358;28;19986;-74
2022/05/07 14:05:38;;;;;;;;;;;37.10;96.90;;;;;;5073039;28;19925;-74
2022/05/07 14:08:05;;;;;;;;;;;35.60;96.60;;;;;;5073157;28;19928;-74
2022/05/07 14:10:32;;;;;;;;;;;33.70;97.00;;;;;;5072838;28;19932;-74
2022/05/07 14:12:59;;;;;;;;;;;32.10;97.90;;;;;;5056395;28;19925;-73
2022/05/07 14:15:26;;;;;;;;;;;30.70;98.90;;;;;;5055854;28;20023;-73
2022/05/07 14:17:52;;;;;;;;;;;29.90;99.90;;;;;;5056467;28;19924;-73
2022/05/07 14:20:21;;;;;;;;;;;29.60;99.90;;;;;;5055863;28;20419;-73
2022/05/07 14:22:48;;;;;;;;;;;28.90;99.90;;;;;;5056478;28;19924;-73
2022/05/07 14:25:14;;;;;;;;;;;27.60;99.90;;;;;;5056303;28;19928;-73
2022/05/07 14:27:41;;;;;;;;;;;26.20;99.90;;;;;;5056110;28;19929;-73
2022/05/07 14:30:10;;;;;;;;;;;25.40;99.90;;;;;;5055846;28;19978;-73
2022/05/07 14:32:38;;;;;;;;;;;25.10;99.90;;;;;;5056217;28;19925;-72
2022/05/07 14:35:06;;;;;;;;;;;24.70;99.90;;;;;;5055943;28;20311;-73
2022/05/07 14:37:34;;;;;;;;;;;24.40;99.90;;;;;;5056174;28;19924;-73
2022/05/07 14:40:28;;;;;;;;;;;23.50;99.90;;;;;;5056032;28;19924;-73
2022/05/07 14:42:50;;;;;;;;;;;23.00;99.90;;;;;;5055978;28;19924;-73
2022/05/07 14:45:17;;;;;;;;;;;22.60;99.90;;;;;;5055919;28;19925;-73
2022/05/07 14:47:43;;;;;;;;;;;22.40;99.90;;;;;;5056076;28;19925;-73
2022/05/07 14:50:10;;;;;;;;;;;22.20;99.90;;;;;;5055556;28;20403;-73
2022/05/07 14:52:39;;;;;;;;;;;21.90;99.90;;;;;;5056014;28;19924;-74
2022/05/07 14:55:06;;;;;;;;;;;21.70;99.90;;;;;;5052671;28;19928;-73
2022/05/07 14:57:32;;;;;;;;;;;21.90;99.90;;;;;;5072628;28;19924;-73
2022/05/07 14:59:59;;;;;;;;;;;21.80;99.90;;;;;;5070771;28;19986;-73
2022/05/07 15:02:26;;;;;;;;;;;22.40;99.90;;;;;;5071884;28;19929;-73
2022/05/07 15:04:53;;;;;;;;;;;;;;;;;;5072020;28;19924;-74